Adolph, Minnesota
Current Conditions -  °F | °C
As of 6:17 AM on Friday 31 Oct 2014 (Local Time) from KDLH Reporting Station
Scattered Clouds Scattered Clouds  
Wind Chill: 16°   Ceiling: Unl
Heat Index: 26°   Visibility: 10mi
Dew Point: 16°   Wind: 10mph
Humidity: 66%   Direction: 10°N
Pressure: 30.47"   Gusts: NA
Location:  46.78°N, 92.28°W
Report Text: KDLH 311117Z 01009KT 10SM SCT029 M03/M09 A3047 RMK AO2 T10331089 $
Loading
Personal Weather Stations






























Interactive Weather Map New forecast layout! Learn more

10-Day Weather Forecast

Advertisements
Track Severe Weather on mobile